createdAt,value
2019-04-27T00:01:10.656Z,7.50
2019-04-27T00:03:48.804Z,7.50
2019-04-27T00:06:17.836Z,7.50
2019-04-27T00:08:49.643Z,7.80
2019-04-27T00:11:24.560Z,7.70
2019-04-27T00:13:53.739Z,7.50
2019-04-27T00:16:46.964Z,7.50
2019-04-27T00:19:44.425Z,7.80
2019-04-27T00:22:18.232Z,7.50
2019-04-27T00:24:52.898Z,7.80
2019-04-27T00:27:23.395Z,7.50
2019-04-27T00:29:53.611Z,7.80
2019-04-27T00:32:23.578Z,7.60
2019-04-27T00:34:53.302Z,7.50
2019-04-27T00:37:30.689Z,7.50
2019-04-27T00:40:14.641Z,7.80
2019-04-27T00:42:44.113Z,7.50
2019-04-27T00:45:13.855Z,7.60
2019-04-27T00:47:56.560Z,7.60
2019-04-27T00:50:15.460Z,7.70
2019-04-27T00:52:44.386Z,7.50
2019-04-27T00:55:13.406Z,7.50
2019-04-27T00:57:53.610Z,7.80
2019-04-27T01:00:34.280Z,7.80
2019-04-27T01:03:11.197Z,7.50
2019-04-27T01:05:40.208Z,7.30
2019-04-27T01:08:09.147Z,7.30
2019-04-27T01:10:47.113Z,7.30
2019-04-27T01:13:17.013Z,7.50
2019-04-27T01:15:46.151Z,7.20
2019-04-27T01:18:15.622Z,7.30
2019-04-27T01:20:48.932Z,7.30
2019-04-27T01:23:19.313Z,7.50
2019-04-27T01:26:12.192Z,7.30
2019-04-27T01:28:46.449Z,7.30
2019-04-27T01:31:15.381Z,7.30
2019-04-27T01:33:44.290Z,6.80
2019-04-27T01:36:14.109Z,7.10
2019-04-27T01:38:44.008Z,7.20
2019-04-27T01:41:12.971Z,6.80
2019-04-27T01:43:49.110Z,7.00
2019-04-27T01:46:19.590Z,7.40
2019-04-27T01:48:49.076Z,6.80
2019-04-27T01:51:20.803Z,7.00
2019-04-27T01:53:49.728Z,7.20
2019-04-27T01:56:19.479Z,6.90
2019-04-27T01:58:49.740Z,7.00
2019-04-27T02:01:30.669Z,7.10
2019-04-27T02:04:10.036Z,7.30
2019-04-27T02:06:38.960Z,7.10
2019-04-27T02:09:08.472Z,7.20
2019-04-27T02:11:38.879Z,7.10
2019-04-27T02:14:09.467Z,7.20
2019-04-27T02:16:39.188Z,7.40
2019-04-27T02:19:11.013Z,7.10
2019-04-27T02:21:39.237Z,6.80
2019-04-27T02:24:12.512Z,7.10
2019-04-27T02:26:41.368Z,7.00
2019-04-27T02:29:35.252Z,6.70
2019-04-27T02:32:39.747Z,6.70
2019-04-27T02:35:12.325Z,6.90
2019-04-27T02:37:42.182Z,6.60
2019-04-27T02:40:51.396Z,6.50
2019-04-27T02:43:23.157Z,7.10
2019-04-27T02:45:52.135Z,7.10
2019-04-27T02:48:21.136Z,6.80
2019-04-27T02:50:51.789Z,6.50
2019-04-27T02:53:39.847Z,6.70
2019-04-27T02:56:10.257Z,6.60
2019-04-27T02:58:40.824Z,6.60
2019-04-27T03:01:16.789Z,6.60
2019-04-27T03:03:50.308Z,6.50
2019-04-27T03:06:19.902Z,6.50
2019-04-27T03:08:54.130Z,6.50
2019-04-27T03:11:23.480Z,6.50
2019-04-27T03:14:36.080Z,6.10
2019-04-27T03:17:11.734Z,6.10
2019-04-27T03:19:52.333Z,6.10
2019-04-27T03:22:25.072Z,5.80
2019-04-27T03:25:30.368Z,5.70
2019-04-27T03:28:03.957Z,6.00
2019-04-27T03:30:42.662Z,6.00
2019-04-27T03:33:15.484Z,5.50
2019-04-27T03:35:52.446Z,5.50
2019-04-27T03:38:20.183Z,5.60
2019-04-27T03:40:50.709Z,5.20
2019-04-27T03:43:24.735Z,5.30
2019-04-27T03:45:54.903Z,5.10
2019-04-27T03:48:23.811Z,5.00
2019-04-27T03:51:16.720Z,5.20
2019-04-27T03:53:57.108Z,5.10
2019-04-27T03:56:47.558Z,4.90
2019-04-27T03:59:25.395Z,4.80
2019-04-27T04:01:54.394Z,4.90
2019-04-27T04:04:23.513Z,5.00
2019-04-27T04:06:54.692Z,4.70
2019-04-27T04:09:40.205Z,4.60
2019-04-27T04:12:19.333Z,4.60
2019-04-27T04:14:49.472Z,4.60
2019-04-27T04:17:20.452Z,4.60
2019-04-27T04:19:57.421Z,4.80
2019-04-27T04:22:21.156Z,4.50
2019-04-27T04:24:50.629Z,4.60
2019-04-27T04:27:22.844Z,4.60
2019-04-27T04:29:51.731Z,4.50
2019-04-27T04:32:29.750Z,4.50
2019-04-27T04:35:20.700Z,4.80
2019-04-27T04:37:56.041Z,4.60
2019-04-27T04:40:31.937Z,4.70
2019-04-27T04:43:07.028Z,4.40
2019-04-27T04:46:00.072Z,4.60
2019-04-27T04:48:30.279Z,4.60
2019-04-27T04:51:05.689Z,4.80
2019-04-27T04:53:34.586Z,4.80
2019-04-27T04:56:05.687Z,4.90
2019-04-27T04:58:41.694Z,4.80
2019-04-27T05:01:10.685Z,4.90
2019-04-27T05:03:48.992Z,5.30
2019-04-27T05:06:18.946Z,5.40
2019-04-27T05:08:50.057Z,5.50
2019-04-27T05:11:23.152Z,5.60
2019-04-27T05:14:01.353Z,5.80
2019-04-27T05:16:32.638Z,5.90
2019-04-27T05:19:00.361Z,6.00
2019-04-27T05:21:31.978Z,6.40
2019-04-27T05:24:00.940Z,6.40
2019-04-27T05:26:30.081Z,6.60
2019-04-27T05:29:00.003Z,6.70
2019-04-27T05:31:29.380Z,6.90
2019-04-27T05:33:59.747Z,7.40
2019-04-27T05:36:32.341Z,7.40
2019-04-27T05:39:01.225Z,7.40
2019-04-27T05:41:37.523Z,7.70
2019-04-27T05:44:14.461Z,7.90
2019-04-27T05:47:05.326Z,7.80
2019-04-27T05:49:44.096Z,8.00
2019-04-27T05:52:29.390Z,8.20
2019-04-27T05:54:59.243Z,8.00
2019-04-27T05:57:31.227Z,8.30
2019-04-27T06:00:02.033Z,8.10
2019-04-27T06:02:30.542Z,8.00
2019-04-27T06:05:00.552Z,8.20
2019-04-27T06:07:29.833Z,8.20
2019-04-27T06:09:59.825Z,8.40
2019-04-27T06:12:29.757Z,8.40
2019-04-27T06:14:59.926Z,8.70
2019-04-27T06:17:29.950Z,8.60
2019-04-27T06:20:00.115Z,8.50
2019-04-27T06:22:29.372Z,8.60
2019-04-27T06:25:00.042Z,8.90
2019-04-27T06:27:30.640Z,8.90
2019-04-27T06:29:59.831Z,8.90
2019-04-27T06:32:29.791Z,8.90
2019-04-27T06:34:59.641Z,9.00
2019-04-27T06:37:34.600Z,9.00
2019-04-27T06:40:03.605Z,8.90
2019-04-27T06:42:34.399Z,9.00
2019-04-27T06:45:04.706Z,9.00
2019-04-27T06:47:33.512Z,9.20
2019-04-27T06:50:03.376Z,9.30
2019-04-27T06:52:32.351Z,9.40
2019-04-27T06:55:01.214Z,9.40
2019-04-27T06:57:30.105Z,9.30
2019-04-27T06:59:59.227Z,9.30
2019-04-27T07:02:29.118Z,9.40
2019-04-27T07:04:59.205Z,9.30
2019-04-27T07:07:29.602Z,8.90
2019-04-27T07:09:59.112Z,8.90
2019-04-27T07:12:28.741Z,8.70
2019-04-27T07:14:59.254Z,8.80
2019-04-27T07:17:29.489Z,9.00
2019-04-27T07:19:59.401Z,9.30
2019-04-27T07:22:29.880Z,9.40
2019-04-27T07:24:59.114Z,9.70
2019-04-27T07:27:29.179Z,9.70
2019-04-27T07:30:00.814Z,9.80
2019-04-27T07:32:29.251Z,9.80
2019-04-27T07:34:58.645Z,9.90
2019-04-27T07:37:29.436Z,9.90
2019-04-27T07:39:59.205Z,9.90
2019-04-27T07:42:30.325Z,10.10
2019-04-27T07:45:20.722Z,10.20
2019-04-27T07:47:49.712Z,10.10
2019-04-27T07:50:19.419Z,10.20
2019-04-27T07:52:51.174Z,10.30
2019-04-27T07:55:20.063Z,10.50
2019-04-27T07:57:49.449Z,10.60
2019-04-27T08:00:19.471Z,10.70
2019-04-27T08:02:50.997Z,10.90
2019-04-27T08:05:19.824Z,11.00
2019-04-27T08:07:49.157Z,11.10
2019-04-27T08:10:19.334Z,11.30
2019-04-27T08:12:51.702Z,11.20
2019-04-27T08:15:20.570Z,11.50
2019-04-27T08:17:49.442Z,11.60
2019-04-27T08:20:21.248Z,11.60
2019-04-27T08:22:49.834Z,11.70
2019-04-27T08:25:19.012Z,11.70
2019-04-27T08:28:10.447Z,11.60
2019-04-27T08:30:48.971Z,11.60
2019-04-27T08:33:19.057Z,11.60
2019-04-27T08:35:49.329Z,11.60
2019-04-27T08:38:19.031Z,11.80
2019-04-27T08:40:49.411Z,11.90
2019-04-27T08:43:19.126Z,12.10
2019-04-27T08:45:49.192Z,12.10
2019-04-27T08:48:33.836Z,12.10
2019-04-27T08:50:54.397Z,12.10
2019-04-27T08:53:27.320Z,12.40
2019-04-27T08:55:56.211Z,12.70
2019-04-27T08:58:25.085Z,12.70
2019-04-27T09:00:53.876Z,12.60
2019-04-27T09:03:22.782Z,12.80
2019-04-27T09:05:51.664Z,13.00
2019-04-27T09:08:35.509Z,13.30
2019-04-27T09:11:23.576Z,13.30
2019-04-27T09:14:01.812Z,12.90
2019-04-27T09:16:42.703Z,12.70
2019-04-27T09:19:42.748Z,12.30
2019-04-27T09:22:15.982Z,12.00
2019-04-27T09:24:42.278Z,11.50
2019-04-27T09:27:11.162Z,11.70
2019-04-27T09:29:40.054Z,12.20
2019-04-27T09:32:09.120Z,12.60
2019-04-27T09:34:46.488Z,12.80
2019-04-27T09:37:16.011Z,12.60
2019-04-27T09:39:47.049Z,12.50
2019-04-27T09:42:16.752Z,12.70
2019-04-27T09:44:47.619Z,12.80
2019-04-27T09:47:16.633Z,12.90
2019-04-27T09:49:46.097Z,12.70
2019-04-27T09:52:24.463Z,12.50
2019-04-27T09:54:53.696Z,12.10
2019-04-27T09:57:22.527Z,11.70
2019-04-27T09:59:51.425Z,11.80
2019-04-27T10:02:20.337Z,12.50
2019-04-27T10:04:49.199Z,13.20
2019-04-27T10:07:18.179Z,13.50
2019-04-27T10:09:50.825Z,13.60
2019-04-27T10:12:26.141Z,13.90
2019-04-27T10:14:58.446Z,14.20
2019-04-27T10:17:27.332Z,13.40
2019-04-27T10:20:06.101Z,12.70
2019-04-27T10:22:43.503Z,12.30
2019-04-27T10:25:27.606Z,12.50
2019-04-27T10:28:02.155Z,12.40
2019-04-27T10:30:31.795Z,12.70
2019-04-27T10:33:00.657Z,13.20
2019-04-27T10:35:29.555Z,13.40
2019-04-27T10:37:58.475Z,13.00
2019-04-27T10:40:28.351Z,12.50
2019-04-27T10:42:57.322Z,12.90
2019-04-27T10:45:36.032Z,13.30
2019-04-27T10:48:07.941Z,13.50
2019-04-27T10:50:49.137Z,13.80
2019-04-27T10:53:18.112Z,14.10
2019-04-27T10:55:47.211Z,14.10
2019-04-27T10:58:35.700Z,13.80
2019-04-27T11:01:11.904Z,13.80
2019-04-27T11:04:11.865Z,13.90
2019-04-27T11:06:43.165Z,14.00
2019-04-27T11:09:12.424Z,13.60
2019-04-27T11:11:41.747Z,13.10
2019-04-27T11:14:49.777Z,12.90
2019-04-27T11:17:39.593Z,13.20
2019-04-27T11:20:18.324Z,13.30
2019-04-27T11:22:49.156Z,13.30
2019-04-27T11:25:18.220Z,13.40
2019-04-27T11:27:47.115Z,13.20
2019-04-27T11:30:17.032Z,12.90
2019-04-27T11:32:45.988Z,13.00
2019-04-27T11:35:35.993Z,13.00
2019-04-27T11:38:07.003Z,12.90
2019-04-27T11:40:48.555Z,13.50
2019-04-27T11:43:20.632Z,13.60
2019-04-27T11:45:49.565Z,13.30
2019-04-27T11:48:18.494Z,13.30
2019-04-27T11:50:56.062Z,13.00
2019-04-27T11:53:26.208Z,13.00
2019-04-27T11:55:55.407Z,12.60
2019-04-27T11:58:26.558Z,12.30
2019-04-27T12:01:05.007Z,11.90
2019-04-27T12:03:36.011Z,11.80
2019-04-27T12:06:25.750Z,11.80
2019-04-27T12:09:02.043Z,12.00
2019-04-27T12:11:32.317Z,12.00
2019-04-27T12:14:06.096Z,12.10
2019-04-27T12:16:51.525Z,11.90
2019-04-27T12:19:38.685Z,11.90
2019-04-27T12:22:13.716Z,11.80
2019-04-27T12:24:42.656Z,11.50
2019-04-27T12:27:33.661Z,11.30
2019-04-27T12:30:16.456Z,11.30
2019-04-27T12:32:51.552Z,11.10
2019-04-27T12:35:20.548Z,11.20
2019-04-27T12:37:49.608Z,11.20
2019-04-27T12:40:18.645Z,11.20
2019-04-27T12:43:24.141Z,11.20
2019-04-27T12:46:02.474Z,11.00
2019-04-27T12:48:40.783Z,10.80
2019-04-27T12:51:22.152Z,10.80
2019-04-27T12:54:06.008Z,10.70
2019-04-27T12:56:46.304Z,10.60
2019-04-27T12:59:21.256Z,10.40
2019-04-27T13:01:59.516Z,10.30
2019-04-27T13:04:52.852Z,10.10
2019-04-27T13:07:26.107Z,9.70
2019-04-27T13:10:12.860Z,9.40
2019-04-27T13:12:49.665Z,9.20
2019-04-27T13:15:28.567Z,9.30
2019-04-27T13:17:57.512Z,8.90
2019-04-27T13:20:26.934Z,8.80
2019-04-27T13:22:56.014Z,8.70
2019-04-27T13:25:24.956Z,8.70
2019-04-27T13:28:08.954Z,8.90
2019-04-27T13:30:43.843Z,8.90
2019-04-27T13:33:21.571Z,9.00
2019-04-27T13:35:50.465Z,8.90
2019-04-27T13:38:19.389Z,9.00
2019-04-27T13:41:10.741Z,9.00
2019-04-27T13:43:47.368Z,9.00
2019-04-27T13:46:41.155Z,9.00
2019-04-27T13:49:46.413Z,8.90
2019-04-27T13:52:20.941Z,9.00
2019-04-27T13:54:50.788Z,8.80
2019-04-27T13:57:19.751Z,9.00
2019-04-27T13:59:54.428Z,9.30
2019-04-27T14:02:32.586Z,9.30
2019-04-27T14:05:01.724Z,9.30
2019-04-27T14:07:30.587Z,9.30
2019-04-27T14:10:00.048Z,9.60
2019-04-27T14:12:34.191Z,9.60
2019-04-27T14:15:06.210Z,9.40
2019-04-27T14:17:35.093Z,8.90
2019-04-27T14:20:05.970Z,9.00
2019-04-27T14:22:42.870Z,9.00
2019-04-27T14:25:30.274Z,9.00
2019-04-27T14:27:59.107Z,8.90
2019-04-27T14:30:28.014Z,9.00
2019-04-27T14:32:57.939Z,9.00
2019-04-27T14:35:31.548Z,9.00
2019-04-27T14:38:00.437Z,9.00
2019-04-27T14:40:29.560Z,8.80
2019-04-27T14:42:59.038Z,9.00
2019-04-27T14:45:28.611Z,9.10
2019-04-27T14:47:58.202Z,8.90
2019-04-27T14:50:29.268Z,9.10
2019-04-27T14:52:59.028Z,8.90
2019-04-27T14:55:28.246Z,8.90
2019-04-27T14:57:58.804Z,8.90
2019-04-27T15:00:28.776Z,8.90
2019-04-27T15:03:00.402Z,8.80
2019-04-27T15:05:29.259Z,9.00
2019-04-27T15:08:01.734Z,8.70
2019-04-27T15:10:32.877Z,8.70
2019-04-27T15:13:01.620Z,8.50
2019-04-27T15:15:32.568Z,8.50
2019-04-27T15:18:05.232Z,8.50
2019-04-27T15:20:40.980Z,8.40
2019-04-27T15:23:10.161Z,8.50
2019-04-27T15:25:45.035Z,8.60
2019-04-27T15:28:15.206Z,8.60
2019-04-27T15:31:02.555Z,8.60
2019-04-27T15:33:53.696Z,8.60
2019-04-27T15:36:30.715Z,8.50
2019-04-27T15:39:01.334Z,8.70
2019-04-27T15:41:35.584Z,8.50
2019-04-27T15:44:06.225Z,8.50
2019-04-27T15:46:35.277Z,8.60
2019-04-27T15:49:09.818Z,8.50
2019-04-27T15:51:35.280Z,8.60
2019-04-27T15:54:04.716Z,8.90
2019-04-27T15:56:35.281Z,8.70
2019-04-27T15:59:04.699Z,8.60
2019-04-27T16:01:35.777Z,8.60
2019-04-27T16:04:07.578Z,8.60
2019-04-27T16:06:35.329Z,8.60
2019-04-27T16:09:10.720Z,8.60
2019-04-27T16:11:39.710Z,8.50
2019-04-27T16:14:08.621Z,8.40
2019-04-27T16:16:40.291Z,8.50
2019-04-27T16:19:11.565Z,8.40
2019-04-27T16:21:46.915Z,8.40
2019-04-27T16:24:12.622Z,8.50
2019-04-27T16:26:42.027Z,8.30
2019-04-27T16:29:11.069Z,8.50
2019-04-27T16:31:40.140Z,8.40
2019-04-27T16:34:11.027Z,8.20
2019-04-27T16:36:43.596Z,7.80
2019-04-27T16:39:10.919Z,7.60
2019-04-27T16:41:42.139Z,7.20
2019-04-27T16:44:11.326Z,6.60
2019-04-27T16:46:42.899Z,6.60
2019-04-27T16:49:14.072Z,6.50
2019-04-27T16:51:42.839Z,6.20
2019-04-27T16:54:17.470Z,6.40
2019-04-27T16:56:45.834Z,6.40
2019-04-27T16:59:36.421Z,6.40
2019-04-27T17:01:46.436Z,6.20
2019-04-27T17:04:15.300Z,6.40
2019-04-27T17:06:45.906Z,6.50
2019-04-27T17:09:14.943Z,6.50
2019-04-27T17:11:50.016Z,6.40
2019-04-27T17:14:22.634Z,6.50
2019-04-27T17:17:11.940Z,6.40
2019-04-27T17:19:53.033Z,6.70
2019-04-27T17:22:22.071Z,6.80
2019-04-27T17:24:51.083Z,6.40
2019-04-27T17:27:28.934Z,6.40
2019-04-27T17:29:59.501Z,6.40
2019-04-27T17:32:51.223Z,6.50
2019-04-27T17:35:20.309Z,6.60
2019-04-27T17:37:49.311Z,6.70
2019-04-27T17:40:18.272Z,6.80
2019-04-27T17:42:48.164Z,6.50
2019-04-27T17:45:19.409Z,6.40
2019-04-27T17:47:48.290Z,6.40
2019-04-27T17:50:18.371Z,6.50
2019-04-27T17:52:54.894Z,6.60
2019-04-27T17:55:24.271Z,6.40
2019-04-27T17:57:50.405Z,6.40
2019-04-27T18:00:20.952Z,6.50
2019-04-27T18:02:49.985Z,6.20
2019-04-27T18:05:18.957Z,6.10
2019-04-27T18:07:48.666Z,6.20
2019-04-27T18:10:23.160Z,6.10
2019-04-27T18:12:55.228Z,6.20
2019-04-27T18:15:24.104Z,6.10
2019-04-27T18:17:54.838Z,6.20
2019-04-27T18:20:25.265Z,6.10
2019-04-27T18:23:03.290Z,6.20
2019-04-27T18:25:39.879Z,6.10
2019-04-27T18:28:14.991Z,6.10
2019-04-27T18:30:54.281Z,6.40
2019-04-27T18:33:24.236Z,6.10
2019-04-27T18:35:58.841Z,6.40
2019-04-27T18:38:23.835Z,6.10
2019-04-27T18:40:52.733Z,6.10
2019-04-27T18:43:22.566Z,6.10
2019-04-27T18:45:51.565Z,6.00
2019-04-27T18:48:33.065Z,5.90
2019-04-27T18:51:15.361Z,5.80
2019-04-27T18:53:44.405Z,5.80
2019-04-27T18:56:13.401Z,5.90
2019-04-27T18:58:42.237Z,5.80
2019-04-27T19:01:12.108Z,5.70
2019-04-27T19:03:40.976Z,5.50
2019-04-27T19:06:09.830Z,5.60
2019-04-27T19:08:38.716Z,5.50
2019-04-27T19:11:09.287Z,5.60
2019-04-27T19:13:40.077Z,5.60
2019-04-27T19:16:09.019Z,5.80
2019-04-27T19:18:39.768Z,5.60
2019-04-27T19:21:08.823Z,5.50
2019-04-27T19:23:38.222Z,5.70
2019-04-27T19:26:33.571Z,5.60
2019-04-27T19:29:18.905Z,5.50
2019-04-27T19:31:53.606Z,5.60
2019-04-27T19:34:22.522Z,5.50
2019-04-27T19:36:55.177Z,5.80
2019-04-27T19:39:25.258Z,5.50
2019-04-27T19:42:00.441Z,5.50
2019-04-27T19:44:26.685Z,5.50
2019-04-27T19:46:56.596Z,5.70
2019-04-27T19:49:25.637Z,5.50
2019-04-27T19:51:56.521Z,5.60
2019-04-27T19:54:25.492Z,5.40
2019-04-27T19:56:56.354Z,5.60
2019-04-27T19:59:30.352Z,5.50
2019-04-27T20:02:01.715Z,5.60
2019-04-27T20:04:35.910Z,5.50
2019-04-27T20:07:06.105Z,5.40
2019-04-27T20:09:58.363Z,5.40
2019-04-27T20:12:31.333Z,5.50
2019-04-27T20:15:02.261Z,5.50
2019-04-27T20:17:33.628Z,5.40
2019-04-27T20:20:02.766Z,5.50
2019-04-27T20:22:35.976Z,5.50
2019-04-27T20:25:05.587Z,5.50
2019-04-27T20:27:46.057Z,5.50
2019-04-27T20:30:11.131Z,5.50
2019-04-27T20:32:40.265Z,5.50
2019-04-27T20:35:12.422Z,5.50
2019-04-27T20:37:42.377Z,5.50
2019-04-27T20:40:11.748Z,5.50
2019-04-27T20:42:42.642Z,5.50
2019-04-27T20:45:12.115Z,5.70
2019-04-27T20:47:41.022Z,5.50
2019-04-27T20:50:11.960Z,5.70
2019-04-27T20:52:53.313Z,5.40
2019-04-27T20:55:22.659Z,5.40
2019-04-27T20:57:59.592Z,5.50
2019-04-27T21:00:25.649Z,5.50
2019-04-27T21:03:11.827Z,5.50
2019-04-27T21:06:02.955Z,5.50
2019-04-27T21:08:33.213Z,5.50
2019-04-27T21:11:04.114Z,5.70
2019-04-27T21:13:33.953Z,5.50
2019-04-27T21:16:02.864Z,5.50
2019-04-27T21:18:32.875Z,5.60
2019-04-27T21:21:01.742Z,5.50
2019-04-27T21:23:31.198Z,5.40
2019-04-27T21:26:02.017Z,5.60
2019-04-27T21:28:31.264Z,5.60
2019-04-27T21:31:02.140Z,5.50
2019-04-27T21:33:31.804Z,5.40
2019-04-27T21:36:06.685Z,5.40
2019-04-27T21:38:35.556Z,5.60
2019-04-27T21:41:04.591Z,5.70
2019-04-27T21:43:33.592Z,5.80
2019-04-27T21:46:03.505Z,5.70
2019-04-27T21:48:32.494Z,5.70
2019-04-27T21:51:01.589Z,5.80
2019-04-27T21:53:55.788Z,6.00
2019-04-27T21:56:27.173Z,6.00
2019-04-27T21:58:56.076Z,5.80
2019-04-27T22:01:31.811Z,5.70
2019-04-27T22:04:01.220Z,5.70
2019-04-27T22:06:32.325Z,5.80
2019-04-27T22:09:02.335Z,5.70
2019-04-27T22:11:31.947Z,5.80
2019-04-27T22:14:02.124Z,5.80
2019-04-27T22:16:33.048Z,5.70
2019-04-27T22:19:02.092Z,5.80
2019-04-27T22:21:33.049Z,5.80
2019-04-27T22:24:11.155Z,5.90
2019-04-27T22:26:41.550Z,5.70
2019-04-27T22:29:14.615Z,5.70
2019-04-27T22:31:43.508Z,5.60
2019-04-27T22:34:12.404Z,5.90
2019-04-27T22:36:41.299Z,5.50
2019-04-27T22:39:25.226Z,5.50
2019-04-27T22:42:01.837Z,5.50
2019-04-27T22:44:38.541Z,5.50
2019-04-27T22:47:07.346Z,5.40
2019-04-27T22:49:36.239Z,5.50
2019-04-27T22:52:05.209Z,5.40
2019-04-27T22:54:34.237Z,5.60
2019-04-27T22:57:07.918Z,5.60
2019-04-27T22:59:51.074Z,5.50
2019-04-27T23:02:29.396Z,5.40
2019-04-27T23:05:01.966Z,5.50
2019-04-27T23:07:31.565Z,5.50
2019-04-27T23:10:01.622Z,5.50
2019-04-27T23:12:35.064Z,5.70
2019-04-27T23:15:07.094Z,5.40
2019-04-27T23:18:05.432Z,5.40
2019-04-27T23:20:34.318Z,5.40
2019-04-27T23:23:03.213Z,5.40
2019-04-27T23:25:33.193Z,5.70
2019-04-27T23:28:03.028Z,5.50
2019-04-27T23:30:41.014Z,5.60
2019-04-27T23:33:11.112Z,5.60
2019-04-27T23:35:41.495Z,5.50
2019-04-27T23:38:17.513Z,5.40
2019-04-27T23:40:42.142Z,5.60
2019-04-27T23:43:11.489Z,5.60
2019-04-27T23:45:41.991Z,5.40
2019-04-27T23:48:12.407Z,5.50
2019-04-27T23:50:43.809Z,5.50
2019-04-27T23:53:23.283Z,5.40
2019-04-27T23:55:52.169Z,5.50
2019-04-27T23:58:21.029Z,5.50
